AUA297W LOWW-EBBR
Flight info
| Callsign | AUA297W |
|---|---|
| Flight time | 1h 21m |
| Altitude | 36000 |
| Route | MEDIX DCT RENKA DCT INBED DCT TEKTU DCT TESGA DCT UMUPU T880 BATTY BATY6A |
| Aircraft | A320/M-SDE3FGHIRWY/LB1 |
Departure
| Time | 2026-05-04 19:58 |
|---|---|
| Airport | Vienna International Airport (LOWW) |
Arrival
| Time | 2026-05-04 21:19 |
|---|---|
| Airport | Brussels Airport (EBBR) |
| Time | Latitude | Longitude | Altitude | Speed | Heading |
|---|---|---|---|---|---|
| 2026-05-04 19:30 | 48.11388 | 16.57249 | 610 ft | 0 kts | 206° |
| 2026-05-04 19:51 | 48.11363 | 16.57230 | 616 ft | 8 kts | 206° |
| 2026-05-04 19:51 | 48.11340 | 16.57168 | 612 ft | 8 kts | 273° |
| 2026-05-04 19:51 | 48.11363 | 16.57081 | 614 ft | 10 kts | 295° |
| 2026-05-04 19:51 | 48.11398 | 16.56977 | 620 ft | 12 kts | 296° |
| 2026-05-04 19:52 | 48.11435 | 16.56864 | 621 ft | 13 kts | 296° |
| 2026-05-04 19:52 | 48.11477 | 16.56735 | 615 ft | 13 kts | 296° |
| 2026-05-04 19:52 | 48.11521 | 16.56599 | 613 ft | 18 kts | 295° |
| 2026-05-04 19:52 | 48.11577 | 16.56424 | 616 ft | 18 kts | 296° |
| 2026-05-04 19:53 | 48.11633 | 16.56255 | 616 ft | 20 kts | 295° |
| 2026-05-04 19:53 | 48.11693 | 16.56070 | 613 ft | 19 kts | 296° |
| 2026-05-04 19:53 | 48.11748 | 16.55903 | 618 ft | 17 kts | 296° |
| 2026-05-04 19:53 | 48.11797 | 16.55752 | 614 ft | 15 kts | 296° |
| 2026-05-04 19:54 | 48.11822 | 16.55616 | 609 ft | 12 kts | 251° |
| 2026-05-04 19:54 | 48.11788 | 16.55519 | 609 ft | 12 kts | 274° |
| 2026-05-04 19:54 | 48.11826 | 16.55379 | 614 ft | 17 kts | 295° |
| 2026-05-04 19:54 | 48.11888 | 16.55190 | 612 ft | 23 kts | 296° |
| 2026-05-04 19:55 | 48.11955 | 16.54984 | 614 ft | 21 kts | 296° |
| 2026-05-04 19:55 | 48.12018 | 16.54792 | 609 ft | 22 kts | 296° |
| 2026-05-04 19:55 | 48.12089 | 16.54572 | 614 ft | 23 kts | 296° |
| 2026-05-04 19:55 | 48.12156 | 16.54367 | 614 ft | 21 kts | 296° |
| 2026-05-04 19:56 | 48.12197 | 16.54242 | 619 ft | 17 kts | 296° |
| 2026-05-04 19:56 | 48.12229 | 16.54089 | 609 ft | 14 kts | 260° |
| 2026-05-04 19:56 | 48.12172 | 16.53985 | 612 ft | 13 kts | 200° |
| 2026-05-04 19:56 | 48.12082 | 16.53981 | 614 ft | 13 kts | 160° |
| 2026-05-04 19:57 | 48.12030 | 16.54110 | 621 ft | 22 kts | 116° |
| 2026-05-04 19:57 | 48.11880 | 16.54570 | 616 ft | 83 kts | 116° |
| 2026-05-04 19:57 | 48.11536 | 16.55621 | 617 ft | 139 kts | 116° |
| 2026-05-04 19:57 | 48.11057 | 16.57061 | 898 ft | 160 kts | 119° |
| 2026-05-04 19:58 | 48.10561 | 16.58564 | 1579 ft | 161 kts | 122° |
| 2026-05-04 19:58 | 48.10052 | 16.60104 | 2064 ft | 175 kts | 123° |
| 2026-05-04 19:58 | 48.09461 | 16.61838 | 2365 ft | 197 kts | 123° |
| 2026-05-04 19:58 | 48.08811 | 16.63714 | 2823 ft | 206 kts | 127° |
| 2026-05-04 19:59 | 48.07862 | 16.65274 | 3382 ft | 205 kts | 151° |
| 2026-05-04 19:59 | 48.06577 | 16.66053 | 4119 ft | 199 kts | 173° |
| 2026-05-04 19:59 | 48.05193 | 16.66009 | 4775 ft | 201 kts | 195° |
| 2026-05-04 19:59 | 48.03914 | 16.65096 | 5329 ft | 211 kts | 218° |
| 2026-05-04 20:00 | 48.02993 | 16.63378 | 5992 ft | 216 kts | 243° |
| 2026-05-04 20:00 | 48.02644 | 16.61155 | 6608 ft | 227 kts | 269° |
| 2026-05-04 20:00 | 48.03007 | 16.58839 | 7250 ft | 234 kts | 290° |
| 2026-05-04 20:00 | 48.03672 | 16.56539 | 7671 ft | 252 kts | 290° |
| 2026-05-04 20:01 | 48.04397 | 16.54016 | 8005 ft | 276 kts | 290° |
| 2026-05-04 20:01 | 48.05165 | 16.51325 | 8613 ft | 286 kts | 290° |
| 2026-05-04 20:01 | 48.05950 | 16.48573 | 9412 ft | 290 kts | 290° |
| 2026-05-04 20:01 | 48.06744 | 16.45784 | 10180 ft | 294 kts | 290° |
| 2026-05-04 20:02 | 48.07565 | 16.42872 | 10485 ft | 316 kts | 290° |
| 2026-05-04 20:02 | 48.08445 | 16.39731 | 10736 ft | 336 kts | 290° |
| 2026-05-04 20:02 | 48.09362 | 16.36464 | 11316 ft | 344 kts | 290° |
| 2026-05-04 20:02 | 48.10294 | 16.33146 | 12044 ft | 348 kts | 290° |
| 2026-05-04 20:03 | 48.11236 | 16.29800 | 12777 ft | 351 kts | 290° |
| 2026-05-04 20:03 | 48.12101 | 16.26383 | 13496 ft | 352 kts | 284° |
| 2026-05-04 20:03 | 48.12828 | 16.22862 | 14176 ft | 355 kts | 284° |
| 2026-05-04 20:03 | 48.13559 | 16.19321 | 14795 ft | 358 kts | 284° |
| 2026-05-04 20:04 | 48.14297 | 16.15745 | 15427 ft | 361 kts | 285° |
| 2026-05-04 20:04 | 48.15042 | 16.12136 | 16047 ft | 364 kts | 285° |
| 2026-05-04 20:04 | 48.15793 | 16.08498 | 16652 ft | 368 kts | 285° |
| 2026-05-04 20:04 | 48.16547 | 16.04825 | 17265 ft | 371 kts | 285° |
| 2026-05-04 20:05 | 48.17307 | 16.01114 | 17861 ft | 374 kts | 285° |
| 2026-05-04 20:05 | 48.18071 | 15.97367 | 18426 ft | 378 kts | 285° |
| 2026-05-04 20:05 | 48.18839 | 15.93594 | 18956 ft | 380 kts | 285° |
| 2026-05-04 20:05 | 48.19610 | 15.89787 | 19493 ft | 383 kts | 285° |
| 2026-05-04 20:06 | 48.20385 | 15.85955 | 20033 ft | 385 kts | 285° |
| 2026-05-04 20:06 | 48.21167 | 15.82097 | 20580 ft | 388 kts | 285° |
| 2026-05-04 20:06 | 48.21953 | 15.78219 | 21123 ft | 390 kts | 286° |
| 2026-05-04 20:06 | 48.22743 | 15.74307 | 21655 ft | 393 kts | 286° |
| 2026-05-04 20:07 | 48.23535 | 15.70375 | 22182 ft | 396 kts | 286° |
| 2026-05-04 20:07 | 48.24334 | 15.66409 | 22696 ft | 398 kts | 286° |
| 2026-05-04 20:07 | 48.25134 | 15.62419 | 23206 ft | 400 kts | 286° |
| 2026-05-04 20:07 | 48.25936 | 15.58406 | 23666 ft | 403 kts | 286° |
| 2026-05-04 20:08 | 48.26742 | 15.54365 | 24070 ft | 405 kts | 286° |
| 2026-05-04 20:08 | 48.27549 | 15.50307 | 24461 ft | 407 kts | 285° |
| 2026-05-04 20:08 | 48.28359 | 15.46219 | 24851 ft | 409 kts | 285° |
| 2026-05-04 20:08 | 48.29171 | 15.42115 | 25233 ft | 411 kts | 285° |
| 2026-05-04 20:09 | 48.29953 | 15.37974 | 25610 ft | 413 kts | 284° |
| 2026-05-04 20:09 | 48.30665 | 15.33788 | 25970 ft | 415 kts | 283° |
| 2026-05-04 20:09 | 48.31334 | 15.29564 | 26328 ft | 417 kts | 282° |
| 2026-05-04 20:09 | 48.31985 | 15.25306 | 26681 ft | 419 kts | 282° |
| 2026-05-04 20:10 | 48.32640 | 15.21029 | 27026 ft | 422 kts | 282° |
| 2026-05-04 20:10 | 48.33308 | 15.16722 | 27368 ft | 424 kts | 282° |
| 2026-05-04 20:10 | 48.33986 | 15.12403 | 27696 ft | 426 kts | 282° |
| 2026-05-04 20:10 | 48.34673 | 15.08062 | 28020 ft | 428 kts | 282° |
| 2026-05-04 20:11 | 48.35367 | 15.03701 | 28338 ft | 430 kts | 282° |
| 2026-05-04 20:11 | 48.36065 | 14.99314 | 28659 ft | 432 kts | 282° |
| 2026-05-04 20:11 | 48.36765 | 14.94899 | 28954 ft | 434 kts | 282° |
| 2026-05-04 20:11 | 48.37467 | 14.90473 | 29254 ft | 436 kts | 282° |
| 2026-05-04 20:12 | 48.38169 | 14.86022 | 29547 ft | 438 kts | 282° |
| 2026-05-04 20:12 | 48.38869 | 14.81549 | 29836 ft | 440 kts | 282° |
| 2026-05-04 20:12 | 48.39566 | 14.77068 | 30091 ft | 442 kts | 282° |
| 2026-05-04 20:12 | 48.40266 | 14.72551 | 30320 ft | 443 kts | 282° |
| 2026-05-04 20:13 | 48.40962 | 14.68036 | 30551 ft | 444 kts | 282° |
| 2026-05-04 20:13 | 48.41660 | 14.63500 | 30774 ft | 445 kts | 282° |
| 2026-05-04 20:13 | 48.42356 | 14.58962 | 31028 ft | 445 kts | 281° |
| 2026-05-04 20:13 | 48.43051 | 14.54433 | 31346 ft | 443 kts | 281° |
| 2026-05-04 20:14 | 48.43741 | 14.49915 | 31662 ft | 442 kts | 281° |
| 2026-05-04 20:14 | 48.44428 | 14.45407 | 31958 ft | 441 kts | 281° |
| 2026-05-04 20:14 | 48.45115 | 14.40909 | 32256 ft | 440 kts | 281° |
| 2026-05-04 20:14 | 48.45803 | 14.36422 | 32552 ft | 440 kts | 281° |
| 2026-05-04 20:15 | 48.46487 | 14.31939 | 32853 ft | 439 kts | 281° |
| 2026-05-04 20:15 | 48.47164 | 14.27466 | 33153 ft | 438 kts | 281° |
| 2026-05-04 20:15 | 48.47835 | 14.22998 | 33456 ft | 436 kts | 281° |
| 2026-05-04 20:15 | 48.48504 | 14.18538 | 33767 ft | 436 kts | 281° |
| 2026-05-04 20:16 | 48.49170 | 14.14090 | 34046 ft | 434 kts | 281° |
| 2026-05-04 20:16 | 48.49834 | 14.09653 | 34316 ft | 433 kts | 281° |
| 2026-05-04 20:16 | 48.50493 | 14.05223 | 34571 ft | 432 kts | 280° |
| 2026-05-04 20:16 | 48.51150 | 14.00806 | 34822 ft | 431 kts | 281° |
| 2026-05-04 20:17 | 48.51806 | 13.96400 | 35055 ft | 431 kts | 281° |
| 2026-05-04 20:17 | 48.52458 | 13.91995 | 35277 ft | 430 kts | 281° |
| 2026-05-04 20:17 | 48.53107 | 13.87591 | 35490 ft | 429 kts | 280° |
| 2026-05-04 20:17 | 48.53752 | 13.83201 | 35715 ft | 429 kts | 280° |
| 2026-05-04 20:18 | 48.54395 | 13.78802 | 35873 ft | 429 kts | 280° |
| 2026-05-04 20:18 | 48.55673 | 13.70039 | 35912 ft | 426 kts | 280° |
| 2026-05-04 20:19 | 48.56937 | 13.61300 | 35913 ft | 426 kts | 280° |
| 2026-05-04 20:19 | 48.58223 | 13.52577 | 35913 ft | 427 kts | 283° |
| 2026-05-04 20:20 | 48.60539 | 13.44294 | 35912 ft | 430 kts | 294° |
| 2026-05-04 20:20 | 48.63201 | 13.36192 | 35914 ft | 431 kts | 294° |
| 2026-05-04 20:21 | 48.65857 | 13.28077 | 35917 ft | 431 kts | 294° |
| 2026-05-04 20:21 | 48.69829 | 13.15875 | 35920 ft | 431 kts | 293° |
| 2026-05-04 20:22 | 48.72470 | 13.07729 | 35925 ft | 431 kts | 293° |
| 2026-05-04 20:22 | 48.75105 | 12.99583 | 35922 ft | 431 kts | 293° |
| 2026-05-04 20:23 | 48.77740 | 12.91427 | 35920 ft | 431 kts | 293° |
| 2026-05-04 20:23 | 48.80367 | 12.83248 | 35921 ft | 431 kts | 293° |
| 2026-05-04 20:24 | 48.82985 | 12.75067 | 35922 ft | 431 kts | 293° |
| 2026-05-04 20:24 | 48.85601 | 12.66877 | 35922 ft | 431 kts | 293° |
| 2026-05-04 20:25 | 48.88211 | 12.58671 | 35924 ft | 431 kts | 292° |
| 2026-05-04 20:25 | 48.90815 | 12.50451 | 35926 ft | 432 kts | 293° |
| 2026-05-04 20:26 | 48.93417 | 12.42216 | 35927 ft | 432 kts | 292° |
| 2026-05-04 20:26 | 48.96003 | 12.33982 | 35931 ft | 432 kts | 292° |
| 2026-05-04 20:27 | 48.98589 | 12.25736 | 35934 ft | 432 kts | 292° |
| 2026-05-04 20:27 | 49.01178 | 12.17496 | 35940 ft | 431 kts | 292° |
| 2026-05-04 20:28 | 49.03758 | 12.09243 | 35948 ft | 431 kts | 292° |
| 2026-05-04 20:28 | 49.06323 | 12.00989 | 35950 ft | 431 kts | 292° |
| 2026-05-04 20:29 | 49.08886 | 11.92708 | 35957 ft | 431 kts | 292° |
| 2026-05-04 20:29 | 49.11314 | 11.84848 | 35960 ft | 432 kts | 292° |
| 2026-05-04 20:30 | 49.13866 | 11.76549 | 35965 ft | 432 kts | 292° |
| 2026-05-04 20:30 | 49.16410 | 11.68227 | 35965 ft | 432 kts | 292° |
| 2026-05-04 20:31 | 49.18952 | 11.59901 | 35961 ft | 432 kts | 292° |
| 2026-05-04 20:31 | 49.21495 | 11.51561 | 35954 ft | 433 kts | 292° |
| 2026-05-04 20:32 | 49.24037 | 11.43215 | 35957 ft | 433 kts | 291° |
| 2026-05-04 20:32 | 49.26563 | 11.34862 | 35950 ft | 432 kts | 291° |
| 2026-05-04 20:33 | 49.28675 | 11.27861 | 35960 ft | 432 kts | 291° |
| 2026-05-04 20:33 | 49.31189 | 11.19504 | 35950 ft | 432 kts | 291° |
| 2026-05-04 20:34 | 49.33690 | 11.11137 | 35955 ft | 432 kts | 291° |
| 2026-05-04 20:34 | 49.36189 | 11.02764 | 35963 ft | 432 kts | 291° |
| 2026-05-04 20:35 | 49.38830 | 10.94481 | 35963 ft | 435 kts | 299° |
| 2026-05-04 20:35 | 49.42594 | 10.87144 | 35966 ft | 439 kts | 306° |
| 2026-05-04 20:36 | 49.46520 | 10.79969 | 35966 ft | 439 kts | 306° |
| 2026-05-04 20:36 | 49.50439 | 10.72776 | 35988 ft | 439 kts | 306° |
| 2026-05-04 20:37 | 49.54350 | 10.65575 | 35977 ft | 439 kts | 306° |
| 2026-05-04 20:37 | 49.58254 | 10.58351 | 35980 ft | 439 kts | 306° |
| 2026-05-04 20:38 | 49.62156 | 10.51115 | 35977 ft | 438 kts | 306° |
| 2026-05-04 20:38 | 49.66046 | 10.43872 | 35975 ft | 438 kts | 305° |
| 2026-05-04 20:39 | 49.69937 | 10.36613 | 35979 ft | 439 kts | 305° |
| 2026-05-04 20:39 | 49.73826 | 10.29332 | 35976 ft | 439 kts | 305° |
| 2026-05-04 20:40 | 49.77715 | 10.22047 | 35979 ft | 439 kts | 305° |
| 2026-05-04 20:40 | 49.81607 | 10.14751 | 35978 ft | 440 kts | 305° |
| 2026-05-04 20:41 | 49.85487 | 10.07432 | 35982 ft | 440 kts | 305° |
| 2026-05-04 20:41 | 49.89364 | 10.00091 | 35986 ft | 440 kts | 305° |
| 2026-05-04 20:42 | 49.93235 | 9.92738 | 35992 ft | 440 kts | 304° |
| 2026-05-04 20:42 | 49.97107 | 9.85375 | 35996 ft | 440 kts | 305° |
| 2026-05-04 20:43 | 50.00981 | 9.77999 | 36000 ft | 441 kts | 305° |
| 2026-05-04 20:43 | 50.04848 | 9.70599 | 36006 ft | 441 kts | 304° |
| 2026-05-04 20:44 | 50.08716 | 9.63196 | 36009 ft | 441 kts | 304° |
| 2026-05-04 20:44 | 50.12588 | 9.55770 | 36012 ft | 441 kts | 304° |
| 2026-05-04 20:45 | 50.16443 | 9.48335 | 36012 ft | 441 kts | 304° |
| 2026-05-04 20:45 | 50.20286 | 9.40876 | 36010 ft | 441 kts | 304° |
| 2026-05-04 20:46 | 50.24132 | 9.33424 | 36010 ft | 440 kts | 304° |
| 2026-05-04 20:46 | 50.27970 | 9.25965 | 36006 ft | 440 kts | 304° |
| 2026-05-04 20:47 | 50.31797 | 9.18489 | 36003 ft | 440 kts | 304° |
| 2026-05-04 20:47 | 50.34872 | 9.10373 | 35995 ft | 429 kts | 287° |
| 2026-05-04 20:48 | 50.36698 | 9.01521 | 35993 ft | 427 kts | 283° |
| 2026-05-04 20:48 | 50.38462 | 8.92627 | 35999 ft | 428 kts | 283° |
| 2026-05-04 20:49 | 50.40219 | 8.83724 | 36000 ft | 428 kts | 282° |
| 2026-05-04 20:49 | 50.41976 | 8.74813 | 35995 ft | 428 kts | 282° |
| 2026-05-04 20:50 | 50.43724 | 8.65896 | 35996 ft | 428 kts | 282° |
| 2026-05-04 20:50 | 50.45006 | 8.56864 | 35998 ft | 423 kts | 274° |
| 2026-05-04 20:51 | 50.45907 | 8.47729 | 36002 ft | 423 kts | 275° |
| 2026-05-04 20:51 | 50.46826 | 8.38597 | 36007 ft | 424 kts | 275° |
| 2026-05-04 20:52 | 50.47735 | 8.29463 | 36011 ft | 424 kts | 274° |
| 2026-05-04 20:52 | 50.48625 | 8.20323 | 36012 ft | 423 kts | 274° |
| 2026-05-04 20:53 | 50.49509 | 8.11185 | 36012 ft | 424 kts | 274° |
| 2026-05-04 20:53 | 50.50384 | 8.02035 | 36009 ft | 424 kts | 274° |
| 2026-05-04 20:54 | 50.51255 | 7.92885 | 36013 ft | 424 kts | 274° |
| 2026-05-04 20:54 | 50.52134 | 7.83730 | 36012 ft | 423 kts | 274° |
| 2026-05-04 20:55 | 50.52994 | 7.74590 | 36008 ft | 423 kts | 274° |
| 2026-05-04 20:55 | 50.53835 | 7.65443 | 36007 ft | 423 kts | 274° |
| 2026-05-04 20:56 | 50.54256 | 7.60861 | 35799 ft | 423 kts | 274° |
| 2026-05-04 20:56 | 50.54675 | 7.56287 | 35558 ft | 422 kts | 274° |
| 2026-05-04 20:56 | 50.55089 | 7.51714 | 35302 ft | 422 kts | 273° |
| 2026-05-04 20:56 | 50.55501 | 7.47144 | 35056 ft | 421 kts | 273° |
| 2026-05-04 20:57 | 50.55848 | 7.42584 | 34813 ft | 418 kts | 269° |
| 2026-05-04 20:57 | 50.55918 | 7.38037 | 34570 ft | 416 kts | 266° |
| 2026-05-04 20:57 | 50.55955 | 7.33489 | 34336 ft | 415 kts | 266° |
| 2026-05-04 20:57 | 50.55988 | 7.28954 | 34102 ft | 415 kts | 266° |
| 2026-05-04 20:58 | 50.56016 | 7.24423 | 33844 ft | 414 kts | 265° |
| 2026-05-04 20:58 | 50.56044 | 7.19882 | 33567 ft | 415 kts | 265° |
| 2026-05-04 20:58 | 50.56059 | 7.15341 | 32976 ft | 415 kts | 264° |
| 2026-05-04 20:58 | 50.56012 | 7.10843 | 32464 ft | 408 kts | 263° |
| 2026-05-04 20:59 | 50.55918 | 7.06405 | 31904 ft | 404 kts | 263° |
| 2026-05-04 20:59 | 50.55797 | 7.02019 | 31354 ft | 400 kts | 262° |
| 2026-05-04 20:59 | 50.55670 | 6.97675 | 30818 ft | 396 kts | 262° |
| 2026-05-04 20:59 | 50.55548 | 6.93356 | 30281 ft | 394 kts | 262° |
| 2026-05-04 21:00 | 50.55434 | 6.89076 | 29712 ft | 391 kts | 262° |
| 2026-05-04 21:00 | 50.55332 | 6.84823 | 29182 ft | 387 kts | 262° |
| 2026-05-04 21:00 | 50.55233 | 6.80620 | 28677 ft | 383 kts | 262° |
| 2026-05-04 21:00 | 50.55134 | 6.76457 | 28173 ft | 379 kts | 262° |
| 2026-05-04 21:01 | 50.55036 | 6.72345 | 27669 ft | 375 kts | 262° |
| 2026-05-04 21:01 | 50.55106 | 6.68238 | 27174 ft | 377 kts | 271° |
| 2026-05-04 21:01 | 50.55556 | 6.64166 | 26695 ft | 377 kts | 275° |
| 2026-05-04 21:01 | 50.56053 | 6.60128 | 26212 ft | 375 kts | 275° |
| 2026-05-04 21:02 | 50.56539 | 6.56113 | 25752 ft | 373 kts | 275° |
| 2026-05-04 21:02 | 50.57019 | 6.52119 | 25297 ft | 370 kts | 276° |
| 2026-05-04 21:02 | 50.57498 | 6.48153 | 24841 ft | 368 kts | 276° |
| 2026-05-04 21:02 | 50.57974 | 6.44212 | 24406 ft | 366 kts | 276° |
| 2026-05-04 21:03 | 50.58445 | 6.40286 | 23963 ft | 363 kts | 276° |
| 2026-05-04 21:03 | 50.58911 | 6.36392 | 23516 ft | 362 kts | 276° |
| 2026-05-04 21:03 | 50.59371 | 6.32513 | 23024 ft | 359 kts | 276° |
| 2026-05-04 21:03 | 50.59825 | 6.28672 | 22590 ft | 355 kts | 276° |
| 2026-05-04 21:04 | 50.60275 | 6.24861 | 22161 ft | 352 kts | 277° |
| 2026-05-04 21:04 | 50.60720 | 6.21092 | 21717 ft | 349 kts | 277° |
| 2026-05-04 21:04 | 50.61160 | 6.17345 | 21284 ft | 347 kts | 277° |
| 2026-05-04 21:04 | 50.61597 | 6.13622 | 20843 ft | 345 kts | 277° |
| 2026-05-04 21:05 | 50.62033 | 6.09919 | 20409 ft | 343 kts | 277° |
| 2026-05-04 21:05 | 50.62465 | 6.06230 | 19964 ft | 342 kts | 277° |
| 2026-05-04 21:05 | 50.62893 | 6.02545 | 19525 ft | 342 kts | 277° |
| 2026-05-04 21:05 | 50.63319 | 5.98872 | 19093 ft | 341 kts | 277° |
| 2026-05-04 21:06 | 50.63740 | 5.95202 | 18659 ft | 340 kts | 277° |
| 2026-05-04 21:06 | 50.64158 | 5.91533 | 18212 ft | 340 kts | 277° |
| 2026-05-04 21:06 | 50.64576 | 5.87873 | 17747 ft | 339 kts | 278° |
| 2026-05-04 21:06 | 50.65194 | 5.84282 | 17307 ft | 340 kts | 288° |
| 2026-05-04 21:07 | 50.66208 | 5.80915 | 16888 ft | 340 kts | 295° |
| 2026-05-04 21:07 | 50.67286 | 5.77611 | 16451 ft | 338 kts | 295° |
| 2026-05-04 21:07 | 50.68353 | 5.74310 | 16019 ft | 337 kts | 295° |
| 2026-05-04 21:07 | 50.69411 | 5.71018 | 15602 ft | 336 kts | 295° |
| 2026-05-04 21:08 | 50.70463 | 5.67724 | 15177 ft | 336 kts | 295° |
| 2026-05-04 21:08 | 50.71511 | 5.64433 | 14752 ft | 335 kts | 295° |
| 2026-05-04 21:08 | 50.72557 | 5.61155 | 14330 ft | 335 kts | 296° |
| 2026-05-04 21:08 | 50.73605 | 5.57876 | 13897 ft | 335 kts | 296° |
| 2026-05-04 21:09 | 50.74654 | 5.54601 | 13430 ft | 334 kts | 296° |
| 2026-05-04 21:09 | 50.75700 | 5.51333 | 12987 ft | 332 kts | 296° |
| 2026-05-04 21:09 | 50.76737 | 5.48081 | 12543 ft | 331 kts | 297° |
| 2026-05-04 21:09 | 50.77767 | 5.44842 | 12107 ft | 329 kts | 297° |
| 2026-05-04 21:10 | 50.78789 | 5.41623 | 11668 ft | 327 kts | 297° |
| 2026-05-04 21:10 | 50.79805 | 5.38417 | 11238 ft | 325 kts | 297° |
| 2026-05-04 21:10 | 50.80817 | 5.35225 | 10786 ft | 324 kts | 297° |
| 2026-05-04 21:10 | 50.81483 | 5.33121 | 10497 ft | 323 kts | 297° |
| 2026-05-04 21:11 | 50.82484 | 5.29958 | 10178 ft | 317 kts | 297° |
| 2026-05-04 21:11 | 50.83450 | 5.26893 | 10054 ft | 306 kts | 298° |
| 2026-05-04 21:11 | 50.84382 | 5.23938 | 9900 ft | 296 kts | 298° |
| 2026-05-04 21:11 | 50.85293 | 5.21046 | 9520 ft | 294 kts | 298° |
| 2026-05-04 21:12 | 50.86199 | 5.18163 | 9151 ft | 291 kts | 298° |
| 2026-05-04 21:12 | 50.87102 | 5.15288 | 8743 ft | 289 kts | 298° |
| 2026-05-04 21:12 | 50.88051 | 5.12505 | 8366 ft | 286 kts | 304° |
| 2026-05-04 21:12 | 50.89116 | 5.09873 | 7856 ft | 283 kts | 304° |
| 2026-05-04 21:13 | 50.90170 | 5.07259 | 7401 ft | 277 kts | 303° |
| 2026-05-04 21:13 | 50.91208 | 5.04681 | 7037 ft | 277 kts | 303° |
| 2026-05-04 21:13 | 50.92237 | 5.02115 | 6669 ft | 275 kts | 303° |
| 2026-05-04 21:13 | 50.93264 | 4.99553 | 6253 ft | 275 kts | 303° |
| 2026-05-04 21:14 | 50.94286 | 4.97002 | 5814 ft | 274 kts | 303° |
| 2026-05-04 21:14 | 50.95306 | 4.94450 | 5379 ft | 273 kts | 303° |
| 2026-05-04 21:14 | 50.96321 | 4.91916 | 4950 ft | 272 kts | 303° |
| 2026-05-04 21:14 | 50.97247 | 4.89307 | 4516 ft | 271 kts | 290° |
| 2026-05-04 21:15 | 50.97535 | 4.86374 | 4102 ft | 271 kts | 266° |
| 2026-05-04 21:15 | 50.97092 | 4.83503 | 3774 ft | 266 kts | 250° |
| 2026-05-04 21:15 | 50.96455 | 4.80792 | 3518 ft | 259 kts | 250° |
| 2026-05-04 21:15 | 50.95834 | 4.78170 | 3259 ft | 248 kts | 250° |
| 2026-05-04 21:16 | 50.95243 | 4.75677 | 3065 ft | 235 kts | 250° |
| 2026-05-04 21:16 | 50.94698 | 4.73302 | 2917 ft | 226 kts | 251° |
| 2026-05-04 21:16 | 50.94167 | 4.70974 | 2637 ft | 223 kts | 251° |
| 2026-05-04 21:16 | 50.93645 | 4.68686 | 2370 ft | 218 kts | 251° |
| 2026-05-04 21:17 | 50.93132 | 4.66445 | 2072 ft | 212 kts | 251° |
| 2026-05-04 21:17 | 50.92646 | 4.64321 | 1829 ft | 199 kts | 252° |
| 2026-05-04 21:17 | 50.92188 | 4.62324 | 1526 ft | 187 kts | 252° |
| 2026-05-04 21:17 | 50.91765 | 4.60482 | 1310 ft | 168 kts | 251° |
| 2026-05-04 21:18 | 50.91380 | 4.58807 | 1068 ft | 155 kts | 252° |
| 2026-05-04 21:18 | 50.91021 | 4.57242 | 853 ft | 148 kts | 252° |
| 2026-05-04 21:18 | 50.90675 | 4.55731 | 661 ft | 144 kts | 251° |
| 2026-05-04 21:18 | 50.90374 | 4.54421 | 481 ft | 141 kts | 251° |
| 2026-05-04 21:19 | 50.90039 | 4.52967 | 300 ft | 139 kts | 251° |
| 2026-05-04 21:19 | 50.89716 | 4.51546 | 191 ft | 127 kts | 250° |
| 2026-05-04 21:19 | 50.89467 | 4.50477 | 190 ft | 79 kts | 250° |
| 2026-05-04 21:19 | 50.89343 | 4.49938 | 201 ft | 29 kts | 251° |
| 2026-05-04 21:20 | 50.89356 | 4.49705 | 189 ft | 18 kts | 301° |
| 2026-05-04 21:20 | 50.89428 | 4.49552 | 196 ft | 15 kts | 307° |
| 2026-05-04 21:20 | 50.89497 | 4.49408 | 183 ft | 15 kts | 307° |
| 2026-05-04 21:20 | 50.89555 | 4.49286 | 190 ft | 13 kts | 307° |
| 2026-05-04 21:21 | 50.89614 | 4.49169 | 188 ft | 14 kts | 317° |
| 2026-05-04 21:21 | 50.89708 | 4.49170 | 184 ft | 14 kts | 14° |
| 2026-05-04 21:21 | 50.89807 | 4.49211 | 192 ft | 15 kts | 14° |
| 2026-05-04 21:21 | 50.89909 | 4.49253 | 188 ft | 16 kts | 14° |
| 2026-05-04 21:22 | 50.90019 | 4.49297 | 188 ft | 17 kts | 14° |
| 2026-05-04 21:22 | 50.90137 | 4.49345 | 188 ft | 17 kts | 14° |
| 2026-05-04 21:22 | 50.90247 | 4.49390 | 186 ft | 14 kts | 14° |
| 2026-05-04 21:22 | 50.90327 | 4.49388 | 195 ft | 11 kts | 325° |
| 2026-05-04 21:23 | 50.90385 | 4.49324 | 184 ft | 9 kts | 316° |
| 2026-05-04 21:23 | 50.90378 | 4.49231 | 192 ft | 12 kts | 245° |
| 2026-05-04 21:23 | 50.90339 | 4.49096 | 191 ft | 14 kts | 245° |
| 2026-05-04 21:23 | 50.90298 | 4.48952 | 184 ft | 14 kts | 245° |
| 2026-05-04 21:24 | 50.90263 | 4.48833 | 192 ft | 10 kts | 245° |
| 2026-05-04 21:24 | 50.90235 | 4.48734 | 191 ft | 9 kts | 245° |
| 2026-05-04 21:24 | 50.90209 | 4.48644 | 187 ft | 8 kts | 245° |
| 2026-05-04 21:24 | 50.90206 | 4.48573 | 190 ft | 6 kts | 302° |
| 2026-05-04 21:25 | 50.90234 | 4.48542 | 188 ft | 4 kts | 334° |
| 2026-05-04 21:25 | 50.90254 | 4.48528 | 195 ft | 2 kts | 335° |
| 2026-05-04 21:25 | 50.90263 | 4.48521 | 190 ft | 1 kts | 335° |
| 2026-05-04 21:25 | 50.90266 | 4.48519 | 197 ft | 0 kts | 335° |